createdAt,value
2023-05-19T00:01:50.283Z,15.16
2023-05-19T00:06:54.602Z,14.30
2023-05-19T00:11:58.134Z,14.35
2023-05-19T00:17:02.076Z,16.58
2023-05-19T00:22:05.475Z,17.71
2023-05-19T00:27:08.451Z,16.86
2023-05-19T00:32:11.648Z,15.28
2023-05-19T00:37:14.686Z,14.30
2023-05-19T00:42:18.106Z,13.72
2023-05-19T00:47:21.236Z,15.47
2023-05-19T00:52:24.278Z,17.20
2023-05-19T00:57:28.244Z,17.18
2023-05-19T01:02:32.511Z,15.44
2023-05-19T01:07:36.919Z,14.33
2023-05-19T01:12:41.040Z,14.45
2023-05-19T01:18:14.468Z,16.63
2023-05-19T01:23:59.353Z,17.07
2023-05-19T01:29:37.130Z,15.21
2023-05-19T01:34:44.521Z,14.07
2023-05-19T01:39:48.616Z,14.42
2023-05-19T01:44:52.574Z,16.62
2023-05-19T01:49:55.563Z,17.60
2023-05-19T01:54:58.613Z,16.23
2023-05-19T02:00:11.804Z,14.77
2023-05-19T02:05:29.613Z,13.86
2023-05-19T02:10:35.907Z,14.29
2023-05-19T02:15:42.472Z,16.51
2023-05-19T02:20:45.907Z,17.30
2023-05-19T02:25:49.075Z,15.74
2023-05-19T02:30:52.112Z,14.48
2023-05-19T02:35:55.125Z,13.71
2023-05-19T02:40:58.719Z,14.61
2023-05-19T02:46:01.608Z,16.76
2023-05-19T02:51:04.978Z,17.48
2023-05-19T02:56:07.965Z,16.01
2023-05-19T03:01:11.238Z,14.68
2023-05-19T03:06:14.264Z,14.17
2023-05-19T03:11:17.830Z,16.19
2023-05-19T03:16:22.106Z,17.63
2023-05-19T03:21:25.186Z,16.69
2023-05-19T03:26:29.427Z,15.10
2023-05-19T03:31:32.493Z,14.15
2023-05-19T03:36:41.490Z,14.47
2023-05-19T03:41:44.494Z,16.76
2023-05-19T03:46:47.504Z,17.75
2023-05-19T03:51:50.671Z,16.50
2023-05-19T03:56:53.715Z,14.98
2023-05-19T04:01:57.934Z,14.43
2023-05-19T04:07:01.378Z,16.39
2023-05-19T04:12:04.754Z,17.58
2023-05-19T04:17:08.397Z,16.41
2023-05-19T04:22:11.231Z,14.83
2023-05-19T04:27:16.116Z,14.10
2023-05-19T04:32:19.302Z,15.96
2023-05-19T04:37:22.392Z,17.48
2023-05-19T04:42:26.306Z,17.54
2023-05-19T04:47:30.202Z,15.77
2023-05-19T04:52:33.875Z,14.61
2023-05-19T04:57:37.685Z,13.99
2023-05-19T05:02:41.521Z,15.73
2023-05-19T05:07:44.657Z,17.52
2023-05-19T05:12:47.982Z,17.06
2023-05-19T05:17:51.740Z,15.32
2023-05-19T05:22:55.189Z,14.97
2023-05-19T05:27:59.070Z,17.15
2023-05-19T05:33:02.454Z,17.50
2023-05-19T05:38:05.454Z,15.78
2023-05-19T05:43:08.410Z,14.65
2023-05-19T05:48:11.843Z,14.98
2023-05-19T05:53:20.513Z,17.10
2023-05-19T05:58:24.381Z,17.16
2023-05-19T06:03:27.419Z,15.57
2023-05-19T06:08:30.490Z,15.98
2023-05-19T06:13:33.468Z,17.49
2023-05-19T06:18:36.450Z,16.12
2023-05-19T06:23:43.671Z,14.89
2023-05-19T06:28:46.862Z,15.19
2023-05-19T06:33:49.821Z,17.32
2023-05-19T06:38:52.895Z,17.45
2023-05-19T06:43:56.682Z,15.83
2023-05-19T06:48:59.661Z,14.88
2023-05-19T06:54:03.220Z,15.32
2023-05-19T06:59:06.262Z,17.56
2023-05-19T07:04:09.261Z,18.01
2023-05-19T07:09:12.296Z,16.40
2023-05-19T07:14:15.753Z,15.32
2023-05-19T07:19:22.602Z,15.56
2023-05-19T07:24:27.613Z,17.72
2023-05-19T07:29:30.607Z,17.66
2023-05-19T07:34:33.635Z,16.22
2023-05-19T07:39:36.611Z,15.35
2023-05-19T07:44:39.589Z,14.71
2023-05-19T07:49:42.603Z,15.32
2023-05-19T07:54:48.939Z,17.69
2023-05-19T07:59:51.940Z,17.87
2023-05-19T08:04:55.083Z,16.32
2023-05-19T08:09:58.180Z,15.39
2023-05-19T08:15:01.733Z,15.82
2023-05-19T08:20:10.337Z,17.81
2023-05-19T08:25:13.917Z,16.64
2023-05-19T08:30:16.853Z,15.54
2023-05-19T08:35:19.985Z,14.86
2023-05-19T08:40:23.599Z,15.46
2023-05-19T08:45:27.609Z,17.93
2023-05-19T08:50:33.494Z,18.35
2023-05-19T08:56:18.403Z,16.72
2023-05-19T09:01:22.736Z,15.65
2023-05-19T09:06:26.867Z,15.04
2023-05-19T09:11:29.907Z,15.06
2023-05-19T09:16:34.158Z,17.43
2023-05-19T09:21:37.628Z,18.86
2023-05-19T09:26:42.820Z,17.73
2023-05-19T09:31:54.109Z,16.49
2023-05-19T09:36:59.851Z,15.72
2023-05-19T09:42:05.381Z,15.22
2023-05-19T09:47:09.984Z,15.88
2023-05-19T09:52:16.367Z,18.37
2023-05-19T09:57:27.139Z,18.52
2023-05-19T10:02:31.623Z,16.95
2023-05-19T10:07:35.402Z,15.99
2023-05-19T10:12:39.983Z,15.42
2023-05-19T10:17:45.102Z,16.15
2023-05-19T10:22:48.859Z,18.59
2023-05-19T10:27:57.531Z,18.83
2023-05-19T10:33:02.898Z,17.25
2023-05-19T10:38:53.457Z,16.36
2023-05-19T10:44:21.433Z,15.79
2023-05-19T10:49:24.780Z,15.36
2023-05-19T10:54:47.307Z,16.11
2023-05-19T10:59:50.656Z,18.76
2023-05-19T11:04:58.650Z,19.21
2023-05-19T11:10:07.206Z,17.58
2023-05-19T11:15:25.735Z,16.61
2023-05-19T11:20:39.633Z,16.02
2023-05-19T11:25:47.632Z,16.70
2023-05-19T11:30:51.966Z,19.07
2023-05-19T11:35:59.835Z,19.41
2023-05-19T11:41:03.868Z,17.79
2023-05-19T11:46:06.907Z,16.85
2023-05-19T11:51:09.938Z,16.22
2023-05-19T11:56:12.975Z,15.76
2023-05-19T12:01:17.379Z,16.37
2023-05-19T12:06:20.442Z,18.84
2023-05-19T12:11:28.919Z,19.17
2023-05-19T12:16:35.883Z,17.59
2023-05-19T12:21:39.360Z,16.69
2023-05-19T12:26:42.516Z,16.14
2023-05-19T12:31:47.235Z,16.63
2023-05-19T12:36:53.346Z,19.02
2023-05-19T12:42:10.590Z,18.64
2023-05-19T12:47:15.852Z,17.18
2023-05-19T12:52:18.927Z,16.41
2023-05-19T12:57:23.311Z,16.07
2023-05-19T13:02:27.672Z,18.09
2023-05-19T13:07:30.756Z,19.54
2023-05-19T13:12:33.748Z,18.31
2023-05-19T13:17:36.935Z,17.07
2023-05-19T13:22:39.943Z,16.38
2023-05-19T13:27:45.988Z,16.13
2023-05-19T13:32:49.053Z,18.30
2023-05-19T13:37:52.240Z,19.65
2023-05-19T13:42:55.194Z,18.35
2023-05-19T13:47:58.364Z,17.12
2023-05-19T13:53:08.375Z,16.39
2023-05-19T13:58:12.545Z,16.88
2023-05-19T14:03:19.675Z,19.23
2023-05-19T14:08:22.911Z,19.13
2023-05-19T14:13:33.049Z,17.59
2023-05-19T14:18:38.521Z,16.71
2023-05-19T14:23:41.818Z,17.09
2023-05-19T14:28:44.670Z,19.35
2023-05-19T14:33:47.686Z,19.04
2023-05-19T14:38:50.689Z,17.53
2023-05-19T14:43:54.153Z,16.72
2023-05-19T14:48:57.031Z,16.16
2023-05-19T14:54:00.649Z,17.50
2023-05-19T14:59:04.568Z,19.58
2023-05-19T15:04:07.567Z,19.09
2023-05-19T15:09:14.472Z,17.68
2023-05-19T15:14:17.740Z,16.92
2023-05-19T15:19:21.012Z,16.38
2023-05-19T15:24:27.332Z,16.95
2023-05-19T15:29:30.176Z,19.32
2023-05-19T15:34:33.393Z,19.58
2023-05-19T15:39:36.400Z,18.01
2023-05-19T15:44:39.356Z,17.02
2023-05-19T15:49:42.378Z,16.36
2023-05-19T15:54:45.407Z,16.86
2023-05-19T15:59:48.398Z,19.21
2023-05-19T16:04:51.967Z,19.66
2023-05-19T16:09:55.111Z,18.05
2023-05-19T16:14:58.056Z,17.05
2023-05-19T16:20:01.018Z,16.44
2023-05-19T16:25:07.758Z,16.99
2023-05-19T16:30:11.559Z,19.35
2023-05-19T16:35:14.724Z,19.75
2023-05-19T16:40:17.791Z,18.22
2023-05-19T16:45:20.950Z,17.26
2023-05-19T16:50:24.024Z,16.62
2023-05-19T16:55:27.101Z,17.12
2023-05-19T17:00:30.230Z,19.42
2023-05-19T17:05:33.179Z,19.90
2023-05-19T17:10:37.088Z,18.31
2023-05-19T17:15:41.660Z,17.28
2023-05-19T17:20:46.086Z,16.63
2023-05-19T17:25:49.063Z,17.15
2023-05-19T17:30:52.056Z,19.48
2023-05-19T17:35:55.017Z,20.24
2023-05-19T17:41:02.448Z,18.78
2023-05-19T17:46:06.219Z,17.60
2023-05-19T17:51:09.545Z,16.89
2023-05-19T17:56:13.322Z,17.35
2023-05-19T18:01:18.026Z,19.62
2023-05-19T18:06:21.357Z,20.45
2023-05-19T18:11:24.790Z,19.01
2023-05-19T18:16:28.193Z,17.78
2023-05-19T18:21:32.681Z,17.01
2023-05-19T18:26:37.874Z,17.51
2023-05-19T18:31:41.757Z,19.73
2023-05-19T18:36:44.756Z,20.51
2023-05-19T18:41:47.972Z,19.06
2023-05-19T18:46:52.381Z,17.79
2023-05-19T18:51:55.351Z,17.00
2023-05-19T18:56:59.326Z,18.11
2023-05-19T19:02:03.200Z,20.05
2023-05-19T19:07:06.155Z,20.15
2023-05-19T19:12:09.486Z,18.43
2023-05-19T19:17:12.547Z,17.33
2023-05-19T19:22:15.780Z,17.65
2023-05-19T19:27:20.694Z,19.77
2023-05-19T19:32:24.116Z,20.33
2023-05-19T19:37:27.238Z,18.71
2023-05-19T19:42:31.895Z,17.49
2023-05-19T19:47:35.033Z,17.75
2023-05-19T19:52:38.162Z,19.81
2023-05-19T19:57:41.145Z,20.52
2023-05-19T20:03:02.814Z,19.04
2023-05-19T20:08:08.684Z,17.71
2023-05-19T20:13:11.625Z,17.91
2023-05-19T20:18:14.974Z,19.97
2023-05-19T20:23:17.983Z,20.28
2023-05-19T20:28:23.191Z,18.63
2023-05-19T20:33:27.232Z,17.51
2023-05-19T20:38:30.361Z,17.75
2023-05-19T20:43:33.926Z,19.83
2023-05-19T20:48:36.943Z,20.66
2023-05-19T20:53:39.958Z,19.31
2023-05-19T20:58:43.082Z,17.93
2023-05-19T21:03:46.254Z,17.99
2023-05-19T21:08:49.218Z,19.99
2023-05-19T21:13:52.186Z,20.47
2023-05-19T21:18:55.166Z,18.82
2023-05-19T21:23:58.201Z,17.53
2023-05-19T21:29:01.292Z,17.84
2023-05-19T21:34:04.940Z,19.92
2023-05-19T21:39:07.924Z,20.71
2023-05-19T21:44:10.944Z,19.53
2023-05-19T21:49:13.923Z,17.91
2023-05-19T21:54:16.908Z,17.88
2023-05-19T21:59:23.259Z,19.84
2023-05-19T22:04:27.164Z,20.76
2023-05-19T22:09:30.121Z,19.78
2023-05-19T22:14:33.114Z,18.15
2023-05-19T22:19:36.385Z,17.18
2023-05-19T22:24:39.967Z,18.20
2023-05-19T22:29:42.983Z,20.01
2023-05-19T22:34:46.445Z,20.65
2023-05-19T22:39:49.582Z,19.31
2023-05-19T22:44:52.599Z,17.86
2023-05-19T22:49:57.133Z,17.96
2023-05-19T22:55:00.362Z,19.97
2023-05-19T23:00:04.107Z,20.36
2023-05-19T23:05:08.199Z,18.54
2023-05-19T23:10:11.574Z,17.52
2023-05-19T23:15:14.419Z,19.26
2023-05-19T23:20:17.517Z,20.42
2023-05-19T23:25:20.484Z,20.02
2023-05-19T23:30:23.487Z,18.25
2023-05-19T23:35:26.590Z,18.06
2023-05-19T23:40:29.605Z,19.86
2023-05-19T23:45:32.980Z,20.55
2023-05-19T23:50:36.121Z,19.02
2023-05-19T23:55:39.088Z,17.57
